Isis — OEX5261 — position and weather

sailwx.info

Track history (hours):
 
Tides and Currents Weather Stations Pressure Air Temp Water Temp Dewpoint Dewpoint Depression Visibility Wind Speed Wind Dir Waves Ship Positions

Isis

Last reported at 2017-Sep-19 10:04 UTC. Time now 2017-Sep-19 11:47 UTC.
Position N 28°03' W 014°23'.

Length 14 m.

Type: Sailing vessel. MMSI: 203249200.

Date/timePositionNaut miles runAvg speedWind from/ knotsBaromVisibWave heightAir tempDewpointWater temp
2017-Sep-19 10:04N 28°03' W 014°23'1 4.8
2017-Sep-19 09:52N 28°03' W 014°24'3 4.4
2017-Sep-19 09:15N 28°03' W 014°27'1 3.5
2017-Sep-19 08:55N 28°03' W 014°29'2 4.3
2017-Sep-19 08:30N 28°03' W 014°31'3 3.7
2017-Sep-19 07:40N 28°02' W 014°34'1 3.4
2017-Sep-19 07:28N 28°03' W 014°35'2 4.6
2017-Sep-19 07:00N 28°03' W 014°37'4 5.5
2017-Sep-19 06:18N 28°04' W 014°42'2 6.1
2017-Sep-19 06:00N 28°04' W 014°44'3 5.6
2017-Sep-19 05:30N 28°04' W 014°47'3 5.3
2017-Sep-19 04:59N 28°05' W 014°50'3 5.4
2017-Sep-19 04:29N 28°06' W 014°53'3 5.2
2017-Sep-19 03:58N 28°06' W 014°56'2 4.7
2017-Sep-19 03:27N 28°07' W 014°58'3 5.5
2017-Sep-19 02:57N 28°07' W 015°01'3 5.1
2017-Sep-19 02:26N 28°08' W 015°04'2 4.3
2017-Sep-19 01:55N 28°09' W 015°07'2 4.4
2017-Sep-19 01:30N 28°09' W 015°09'2 4.7
2017-Sep-19 01:00N 28°10' W 015°11'2 4.6
2017-Sep-19 00:30N 28°10' W 015°14'2 4.7
2017-Sep-19 00:00N 28°11' W 015°16'2 4.3
2017-Sep-18 23:30N 28°11' W 015°19'2 3.4
2017-Sep-18 23:00N 28°12' W 015°21'2 3.2
2017-Sep-18 22:30N 28°12' W 015°22'2 3.1
2017-Sep-18 22:00N 28°13' W 015°24'2 3.4
2017-Sep-18 21:30N 28°14' W 015°25'2 4.1
2017-Sep-18 20:59N 28°14' W 015°28'2 4.3
2017-Sep-18 20:29N 28°14' W 015°30'2 3.4
2017-Sep-18 19:58N 28°13' W 015°31'2 4.1
2017-Sep-18 19:26N 28°11' W 015°33'2 4.6
2017-Sep-18 18:57N 28°11' W 015°35'2 4.1
2017-Sep-18 18:26N 28°11' W 015°38'2 3.0
2017-Sep-18 17:56N 28°11' W 015°39'2 4.3
2017-Sep-18 17:25N 28°13' W 015°41'2 4.8
2017-Sep-18 17:00N 28°14' W 015°43'2 4.8
2017-Sep-18 16:30N 28°15' W 015°45'5 4.9
2017-Sep-18 15:30N 28°18' W 015°49'2 4.8
2017-Sep-18 14:59N 28°20' W 015°52'4 5.3
2017-Sep-18 14:20N 28°22' W 015°55'3 4.6
2017-Sep-18 13:34N 28°25' W 015°58'6 4.8
2017-Sep-18 12:14N 28°29' W 016°03'1 5.0
2017-Sep-18 11:58N 28°30' W 016°04'2 3.9
2017-Sep-18 11:27N 28°31' W 016°06'2 2.5
2017-Sep-18 10:35N 28°32' W 016°08'3 0.2
2017-Sep-17 12:02N 28°30' W 016°11'0 4.6
2017-Sep-17 12:01N 28°30' W 016°11'3 4.6
2017-Sep-17 11:24N 28°29' W 016°14'  
Track history (hours):
 
Tides and Currents Weather Stations Pressure Air Temp Water Temp Dewpoint Dewpoint Depression Visibility Wind Speed Wind Dir Waves Ship Positions

Isis

Last reported at 2017-Sep-19 10:04 UTC. Time now 2017-Sep-19 11:47 UTC.
Position N 28°03' W 014°23'.

Length 14 m.

Type: Sailing vessel. MMSI: 203249200.

Date/timePositionNaut miles runAvg speedWind from/ knotsBaromVisibWave heightAir tempDewpointWater temp
2017-Sep-19 10:04N 28°03' W 014°23'1 4.8
2017-Sep-19 09:52N 28°03' W 014°24'3 4.4
2017-Sep-19 09:15N 28°03' W 014°27'1 3.5
2017-Sep-19 08:55N 28°03' W 014°29'2 4.3
2017-Sep-19 08:30N 28°03' W 014°31'3 3.7
2017-Sep-19 07:40N 28°02' W 014°34'1 3.4
2017-Sep-19 07:28N 28°03' W 014°35'2 4.6
2017-Sep-19 07:00N 28°03' W 014°37'4 5.5
2017-Sep-19 06:18N 28°04' W 014°42'2 6.1
2017-Sep-19 06:00N 28°04' W 014°44'3 5.6
2017-Sep-19 05:30N 28°04' W 014°47'3 5.3
2017-Sep-19 04:59N 28°05' W 014°50'3 5.4
2017-Sep-19 04:29N 28°06' W 014°53'3 5.2
2017-Sep-19 03:58N 28°06' W 014°56'2 4.7
2017-Sep-19 03:27N 28°07' W 014°58'3 5.5
2017-Sep-19 02:57N 28°07' W 015°01'3 5.1
2017-Sep-19 02:26N 28°08' W 015°04'2 4.3
2017-Sep-19 01:55N 28°09' W 015°07'2 4.4
2017-Sep-19 01:30N 28°09' W 015°09'2 4.7
2017-Sep-19 01:00N 28°10' W 015°11'2 4.6
2017-Sep-19 00:30N 28°10' W 015°14'2 4.7
2017-Sep-19 00:00N 28°11' W 015°16'2 4.3
2017-Sep-18 23:30N 28°11' W 015°19'2 3.4
2017-Sep-18 23:00N 28°12' W 015°21'2 3.2
2017-Sep-18 22:30N 28°12' W 015°22'2 3.1
2017-Sep-18 22:00N 28°13' W 015°24'2 3.4
2017-Sep-18 21:30N 28°14' W 015°25'2 4.1
2017-Sep-18 20:59N 28°14' W 015°28'2 4.3
2017-Sep-18 20:29N 28°14' W 015°30'2 3.4
2017-Sep-18 19:58N 28°13' W 015°31'2 4.1
2017-Sep-18 19:26N 28°11' W 015°33'2 4.6
2017-Sep-18 18:57N 28°11' W 015°35'2 4.1
2017-Sep-18 18:26N 28°11' W 015°38'2 3.0
2017-Sep-18 17:56N 28°11' W 015°39'2 4.3
2017-Sep-18 17:25N 28°13' W 015°41'2 4.8
2017-Sep-18 17:00N 28°14' W 015°43'2 4.8
2017-Sep-18 16:30N 28°15' W 015°45'5 4.9
2017-Sep-18 15:30N 28°18' W 015°49'2 4.8
2017-Sep-18 14:59N 28°20' W 015°52'4 5.3
2017-Sep-18 14:20N 28°22' W 015°55'3 4.6
2017-Sep-18 13:34N 28°25' W 015°58'6 4.8
2017-Sep-18 12:14N 28°29' W 016°03'1 5.0
2017-Sep-18 11:58N 28°30' W 016°04'2 3.9
2017-Sep-18 11:27N 28°31' W 016°06'2 2.5
2017-Sep-18 10:35N 28°32' W 016°08'3 0.2
2017-Sep-17 12:02N 28°30' W 016°11'0 4.6
2017-Sep-17 12:01N 28°30' W 016°11'3 4.6
2017-Sep-17 11:24N 28°29' W 016°14'  

Dump ship's entire track history